sensor_id;sensor_type;location;lat;lon;timestamp;P1;durP1;ratioP1;P2;durP2;ratioP2
46701;SDS011;33449;50.712;7.124;2023-05-07T14:26:32;6.47;;;2.10;;
46701;SDS011;33449;50.712;7.124;2023-05-07T14:29:24;4.35;;;2.08;;
46701;SDS011;33449;50.712;7.124;2023-05-07T15:10:54;6.40;;;4.38;;
46701;SDS011;33449;50.712;7.124;2023-05-07T15:13:21;6.20;;;4.13;;
46701;SDS011;33449;50.712;7.124;2023-05-07T15:15:48;5.85;;;3.55;;
46701;SDS011;33449;50.712;7.124;2023-05-07T15:18:16;6.45;;;3.70;;
46701;SDS011;33449;50.712;7.124;2023-05-07T15:20:43;10.85;;;3.22;;
46701;SDS011;33449;50.712;7.124;2023-05-07T15:23:10;9.10;;;2.85;;
46701;SDS011;33449;50.712;7.124;2023-05-07T15:25:41;5.90;;;2.97;;
46701;SDS011;33449;50.712;7.124;2023-05-07T15:28:16;6.47;;;3.60;;
46701;SDS011;33449;50.712;7.124;2023-05-07T15:30:43;9.97;;;4.10;;
46701;SDS011;33449;50.712;7.124;2023-05-07T15:33:10;8.90;;;3.85;;
46701;SDS011;33449;50.712;7.124;2023-05-07T15:35:37;9.93;;;4.53;;
46701;SDS011;33449;50.712;7.124;2023-05-07T15:38:05;13.48;;;5.32;;
46701;SDS011;33449;50.712;7.124;2023-05-07T15:40:32;8.52;;;4.18;;
46701;SDS011;33449;50.712;7.124;2023-05-07T15:43:01;13.00;;;5.20;;
46701;SDS011;33449;50.712;7.124;2023-05-07T15:45:28;12.40;;;4.80;;
46701;SDS011;33449;50.712;7.124;2023-05-07T15:47:56;7.45;;;3.75;;
46701;SDS011;33449;50.712;7.124;2023-05-07T15:50:24;8.82;;;4.25;;
46701;SDS011;33449;50.712;7.124;2023-05-07T15:52:51;13.75;;;4.88;;
46701;SDS011;33449;50.712;7.124;2023-05-07T15:55:18;15.35;;;5.88;;
46701;SDS011;33449;50.712;7.124;2023-05-07T15:57:45;10.57;;;4.57;;
46701;SDS011;33449;50.712;7.124;2023-05-07T16:00:12;13.77;;;5.03;;
46701;SDS011;33449;50.712;7.124;2023-05-07T16:02:41;10.88;;;5.35;;
46701;SDS011;33449;50.712;7.124;2023-05-07T16:05:10;12.60;;;5.68;;
46701;SDS011;33449;50.712;7.124;2023-05-07T16:07:38;10.98;;;6.20;;
46701;SDS011;33449;50.712;7.124;2023-05-07T16:10:09;8.50;;;4.93;;
46701;SDS011;33449;50.712;7.124;2023-05-07T16:18:08;13.85;;;8.52;;
46701;SDS011;33449;50.712;7.124;2023-05-07T16:20:35;14.02;;;7.63;;
46701;SDS011;33449;50.712;7.124;2023-05-07T16:23:03;16.13;;;8.88;;
46701;SDS011;33449;50.712;7.124;2023-05-07T16:25:30;12.40;;;7.50;;
46701;SDS011;33449;50.712;7.124;2023-05-07T16:27:57;15.07;;;7.95;;
46701;SDS011;33449;50.712;7.124;2023-05-07T16:30:24;14.32;;;9.02;;
46701;SDS011;33449;50.712;7.124;2023-05-07T16:32:51;14.63;;;9.70;;
46701;SDS011;33449;50.712;7.124;2023-05-07T16:35:18;16.38;;;10.32;;
46701;SDS011;33449;50.712;7.124;2023-05-07T16:37:45;15.82;;;9.15;;
46701;SDS011;33449;50.712;7.124;2023-05-07T16:40:13;14.90;;;10.27;;
46701;SDS011;33449;50.712;7.124;2023-05-07T16:42:40;18.98;;;9.65;;
46701;SDS011;33449;50.712;7.124;2023-05-07T16:45:07;17.05;;;8.68;;
46701;SDS011;33449;50.712;7.124;2023-05-07T16:47:34;11.93;;;6.97;;
46701;SDS011;33449;50.712;7.124;2023-05-07T16:50:02;13.02;;;7.22;;
46701;SDS011;33449;50.712;7.124;2023-05-07T16:52:31;14.50;;;7.80;;
46701;SDS011;33449;50.712;7.124;2023-05-07T16:54:58;15.93;;;8.15;;
46701;SDS011;33449;50.712;7.124;2023-05-07T16:57:27;9.27;;;6.35;;
46701;SDS011;33449;50.712;7.124;2023-05-07T16:59:55;11.90;;;7.15;;
46701;SDS011;33449;50.712;7.124;2023-05-07T17:02:22;11.18;;;7.18;;
46701;SDS011;33449;50.712;7.124;2023-05-07T17:04:49;13.07;;;7.82;;
46701;SDS011;33449;50.712;7.124;2023-05-07T17:07:17;14.07;;;8.63;;
46701;SDS011;33449;50.712;7.124;2023-05-07T17:12:17;13.40;;;7.82;;
46701;SDS011;33449;50.712;7.124;2023-05-07T17:14:44;17.50;;;8.10;;
46701;SDS011;33449;50.712;7.124;2023-05-07T17:17:11;15.10;;;7.85;;
46701;SDS011;33449;50.712;7.124;2023-05-07T17:19:38;16.15;;;8.30;;
46701;SDS011;33449;50.712;7.124;2023-05-07T17:22:06;13.40;;;8.80;;
46701;SDS011;33449;50.712;7.124;2023-05-07T17:24:33;12.80;;;8.40;;
46701;SDS011;33449;50.712;7.124;2023-05-07T17:27:00;12.75;;;9.05;;
46701;SDS011;33449;50.712;7.124;2023-05-07T17:29:28;12.75;;;8.75;;
46701;SDS011;33449;50.712;7.124;2023-05-07T17:31:55;15.23;;;8.77;;
46701;SDS011;33449;50.712;7.124;2023-05-07T17:34:23;12.75;;;8.23;;
46701;SDS011;33449;50.712;7.124;2023-05-07T17:36:50;14.27;;;8.02;;
46701;SDS011;33449;50.712;7.124;2023-05-07T17:39:17;13.77;;;7.60;;
46701;SDS011;33449;50.712;7.124;2023-05-07T17:41:44;14.75;;;10.07;;
46701;SDS011;33449;50.712;7.124;2023-05-07T17:44:11;18.02;;;10.55;;
46701;SDS011;33449;50.712;7.124;2023-05-07T17:49:24;15.70;;;9.88;;
46701;SDS011;33449;50.712;7.124;2023-05-07T17:51:51;22.02;;;9.98;;
46701;SDS011;33449;50.712;7.124;2023-05-07T17:54:21;22.73;;;12.25;;
46701;SDS011;33449;50.712;7.124;2023-05-07T17:56:51;18.58;;;11.23;;
46701;SDS011;33449;50.712;7.124;2023-05-07T17:59:18;19.13;;;11.77;;
46701;SDS011;33449;50.712;7.124;2023-05-07T18:01:45;18.08;;;11.63;;
46701;SDS011;33449;50.712;7.124;2023-05-07T18:04:12;17.17;;;11.82;;
46701;SDS011;33449;50.712;7.124;2023-05-07T18:06:39;19.58;;;11.63;;
46701;SDS011;33449;50.712;7.124;2023-05-07T18:09:07;21.58;;;12.00;;
46701;SDS011;33449;50.712;7.124;2023-05-07T18:11:34;20.70;;;12.65;;
46701;SDS011;33449;50.712;7.124;2023-05-07T18:14:02;19.70;;;13.75;;
46701;SDS011;33449;50.712;7.124;2023-05-07T18:16:29;21.67;;;13.30;;
46701;SDS011;33449;50.712;7.124;2023-05-07T18:18:56;22.55;;;14.27;;
46701;SDS011;33449;50.712;7.124;2023-05-07T18:21:23;20.33;;;12.77;;
46701;SDS011;33449;50.712;7.124;2023-05-07T18:23:51;19.85;;;12.77;;
46701;SDS011;33449;50.712;7.124;2023-05-07T18:26:18;19.33;;;13.00;;
46701;SDS011;33449;50.712;7.124;2023-05-07T18:28:46;18.05;;;13.00;;
46701;SDS011;33449;50.712;7.124;2023-05-07T18:31:13;22.92;;;14.25;;
46701;SDS011;33449;50.712;7.124;2023-05-07T18:33:41;25.35;;;14.32;;
46701;SDS011;33449;50.712;7.124;2023-05-07T18:36:08;29.25;;;18.58;;
46701;SDS011;33449;50.712;7.124;2023-05-07T18:38:35;25.02;;;17.80;;
46701;SDS011;33449;50.712;7.124;2023-05-07T18:41:03;24.83;;;16.13;;
46701;SDS011;33449;50.712;7.124;2023-05-07T18:43:31;31.45;;;17.08;;
46701;SDS011;33449;50.712;7.124;2023-05-07T18:45:59;28.40;;;16.13;;
46701;SDS011;33449;50.712;7.124;2023-05-07T18:48:26;21.67;;;16.00;;
46701;SDS011;33449;50.712;7.124;2023-05-07T18:50:54;23.65;;;16.08;;
46701;SDS011;33449;50.712;7.124;2023-05-07T18:53:22;26.52;;;16.40;;
46701;SDS011;33449;50.712;7.124;2023-05-07T18:55:49;30.63;;;15.68;;
46701;SDS011;33449;50.712;7.124;2023-05-07T18:58:16;24.88;;;15.88;;
46701;SDS011;33449;50.712;7.124;2023-05-07T19:00:48;25.58;;;16.00;;
46701;SDS011;33449;50.712;7.124;2023-05-07T19:03:15;22.85;;;14.93;;
46701;SDS011;33449;50.712;7.124;2023-05-07T19:05:43;24.17;;;15.07;;
46701;SDS011;33449;50.712;7.124;2023-05-07T19:08:10;23.45;;;14.80;;
46701;SDS011;33449;50.712;7.124;2023-05-07T19:10:38;22.80;;;13.85;;
46701;SDS011;33449;50.712;7.124;2023-05-07T19:13:05;26.25;;;16.02;;
46701;SDS011;33449;50.712;7.124;2023-05-07T19:15:32;21.60;;;14.27;;
46701;SDS011;33449;50.712;7.124;2023-05-07T19:17:59;18.60;;;13.85;;
46701;SDS011;33449;50.712;7.124;2023-05-07T19:20:27;25.48;;;15.27;;
46701;SDS011;33449;50.712;7.124;2023-05-07T19:22:54;19.17;;;12.40;;
46701;SDS011;33449;50.712;7.124;2023-05-07T19:25:21;20.45;;;13.60;;
46701;SDS011;33449;50.712;7.124;2023-05-07T19:27:48;24.17;;;15.27;;
46701;SDS011;33449;50.712;7.124;2023-05-07T19:30:16;19.15;;;13.15;;
46701;SDS011;33449;50.712;7.124;2023-05-07T19:32:43;20.77;;;13.38;;
46701;SDS011;33449;50.712;7.124;2023-05-07T19:35:11;17.83;;;12.48;;
46701;SDS011;33449;50.712;7.124;2023-05-07T19:37:38;18.63;;;11.75;;
46701;SDS011;33449;50.712;7.124;2023-05-07T19:40:06;20.88;;;12.52;;
46701;SDS011;33449;50.712;7.124;2023-05-07T19:42:34;18.67;;;12.68;;
46701;SDS011;33449;50.712;7.124;2023-05-07T19:45:01;23.02;;;14.63;;
46701;SDS011;33449;50.712;7.124;2023-05-07T19:47:29;21.60;;;13.27;;
46701;SDS011;33449;50.712;7.124;2023-05-07T19:52:33;18.42;;;12.27;;
46701;SDS011;33449;50.712;7.124;2023-05-07T19:55:00;20.25;;;12.25;;
46701;SDS011;33449;50.712;7.124;2023-05-07T19:57:27;22.33;;;11.18;;
46701;SDS011;33449;50.712;7.124;2023-05-07T19:59:54;18.33;;;11.85;;
46701;SDS011;33449;50.712;7.124;2023-05-07T20:02:21;20.30;;;11.68;;
46701;SDS011;33449;50.712;7.124;2023-05-07T20:04:48;14.50;;;10.85;;
46701;SDS011;33449;50.712;7.124;2023-05-07T20:07:16;16.67;;;9.13;;
46701;SDS011;33449;50.712;7.124;2023-05-07T20:09:43;14.27;;;10.65;;
46701;SDS011;33449;50.712;7.124;2023-05-07T20:12:09;16.30;;;10.15;;
46701;SDS011;33449;50.712;7.124;2023-05-07T20:14:37;15.80;;;10.05;;
46701;SDS011;33449;50.712;7.124;2023-05-07T20:17:04;13.77;;;8.65;;
46701;SDS011;33449;50.712;7.124;2023-05-07T20:19:31;18.67;;;9.77;;
46701;SDS011;33449;50.712;7.124;2023-05-07T20:21:58;15.65;;;8.45;;
46701;SDS011;33449;50.712;7.124;2023-05-07T20:24:25;14.07;;;8.85;;
46701;SDS011;33449;50.712;7.124;2023-05-07T20:26:52;13.77;;;8.45;;
46701;SDS011;33449;50.712;7.124;2023-05-07T20:29:21;8.98;;;6.15;;
46701;SDS011;33449;50.712;7.124;2023-05-07T20:31:48;15.13;;;6.80;;
46701;SDS011;33449;50.712;7.124;2023-05-07T20:34:15;11.13;;;6.30;;
46701;SDS011;33449;50.712;7.124;2023-05-07T20:36:42;10.88;;;6.68;;
46701;SDS011;33449;50.712;7.124;2023-05-07T20:39:11;15.15;;;8.23;;
46701;SDS011;33449;50.712;7.124;2023-05-07T20:41:41;12.43;;;8.50;;
46701;SDS011;33449;50.712;7.124;2023-05-07T20:44:09;10.55;;;6.50;;
46701;SDS011;33449;50.712;7.124;2023-05-07T20:46:36;11.77;;;7.18;;
46701;SDS011;33449;50.712;7.124;2023-05-07T20:49:04;10.48;;;7.18;;
46701;SDS011;33449;50.712;7.124;2023-05-07T20:51:31;10.95;;;7.63;;
46701;SDS011;33449;50.712;7.124;2023-05-07T20:53:58;13.65;;;8.07;;
46701;SDS011;33449;50.712;7.124;2023-05-07T20:56:25;12.80;;;8.55;;
46701;SDS011;33449;50.712;7.124;2023-05-07T20:58:52;15.48;;;8.88;;
46701;SDS011;33449;50.712;7.124;2023-05-07T21:01:19;15.23;;;9.30;;
46701;SDS011;33449;50.712;7.124;2023-05-07T21:03:46;14.80;;;9.30;;
46701;SDS011;33449;50.712;7.124;2023-05-07T21:06:15;17.98;;;9.68;;
46701;SDS011;33449;50.712;7.124;2023-05-07T21:08:42;16.27;;;9.82;;
46701;SDS011;33449;50.712;7.124;2023-05-07T21:11:09;15.90;;;9.88;;
46701;SDS011;33449;50.712;7.124;2023-05-07T21:13:38;12.50;;;7.60;;
46701;SDS011;33449;50.712;7.124;2023-05-07T21:16:05;11.70;;;7.35;;
46701;SDS011;33449;50.712;7.124;2023-05-07T21:18:32;11.10;;;7.57;;
46701;SDS011;33449;50.712;7.124;2023-05-07T21:20:59;15.38;;;8.40;;
46701;SDS011;33449;50.712;7.124;2023-05-07T21:23:26;14.27;;;8.88;;
46701;SDS011;33449;50.712;7.124;2023-05-07T21:25:53;14.55;;;8.45;;
46701;SDS011;33449;50.712;7.124;2023-05-07T21:28:20;14.20;;;8.45;;
46701;SDS011;33449;50.712;7.124;2023-05-07T21:30:47;15.20;;;8.32;;
46701;SDS011;33449;50.712;7.124;2023-05-07T21:33:14;12.60;;;8.18;;
46701;SDS011;33449;50.712;7.124;2023-05-07T21:35:41;11.68;;;8.23;;
46701;SDS011;33449;50.712;7.124;2023-05-07T21:38:08;13.43;;;8.32;;
46701;SDS011;33449;50.712;7.124;2023-05-07T21:40:37;16.63;;;8.25;;
46701;SDS011;33449;50.712;7.124;2023-05-07T21:43:04;13.95;;;8.30;;
46701;SDS011;33449;50.712;7.124;2023-05-07T21:45:34;12.45;;;7.88;;
46701;SDS011;33449;50.712;7.124;2023-05-07T21:48:01;12.25;;;7.47;;
46701;SDS011;33449;50.712;7.124;2023-05-07T21:55:50;13.80;;;7.00;;
46701;SDS011;33449;50.712;7.124;2023-05-07T21:58:17;17.92;;;8.57;;
46701;SDS011;33449;50.712;7.124;2023-05-07T22:00:44;12.77;;;6.75;;
46701;SDS011;33449;50.712;7.124;2023-05-07T22:03:11;15.38;;;8.82;;
46701;SDS011;33449;50.712;7.124;2023-05-07T22:05:38;11.57;;;7.32;;
46701;SDS011;33449;50.712;7.124;2023-05-07T22:08:05;10.18;;;6.88;;
46701;SDS011;33449;50.712;7.124;2023-05-07T22:10:32;14.95;;;7.68;;
46701;SDS011;33449;50.712;7.124;2023-05-07T22:12:59;14.60;;;7.45;;
46701;SDS011;33449;50.712;7.124;2023-05-07T22:15:26;11.05;;;6.25;;
46701;SDS011;33449;50.712;7.124;2023-05-07T22:17:54;16.25;;;6.13;;
46701;SDS011;33449;50.712;7.124;2023-05-07T22:20:21;9.38;;;5.60;;
46701;SDS011;33449;50.712;7.124;2023-05-07T22:22:48;10.02;;;5.93;;
46701;SDS011;33449;50.712;7.124;2023-05-07T22:25:18;11.30;;;5.85;;
46701;SDS011;33449;50.712;7.124;2023-05-07T22:27:45;11.35;;;5.72;;
46701;SDS011;33449;50.712;7.124;2023-05-07T22:30:12;9.20;;;5.50;;
46701;SDS011;33449;50.712;7.124;2023-05-07T22:32:43;11.23;;;6.05;;
46701;SDS011;33449;50.712;7.124;2023-05-07T22:35:10;10.15;;;6.18;;
46701;SDS011;33449;50.712;7.124;2023-05-07T22:37:37;10.38;;;6.43;;
46701;SDS011;33449;50.712;7.124;2023-05-07T22:40:05;12.90;;;6.80;;
46701;SDS011;33449;50.712;7.124;2023-05-07T22:42:32;13.60;;;6.53;;
46701;SDS011;33449;50.712;7.124;2023-05-07T22:44:59;12.05;;;7.10;;
46701;SDS011;33449;50.712;7.124;2023-05-07T22:47:29;11.68;;;7.55;;
46701;SDS011;33449;50.712;7.124;2023-05-07T22:49:56;14.30;;;8.07;;
46701;SDS011;33449;50.712;7.124;2023-05-07T22:52:23;12.80;;;7.38;;
46701;SDS011;33449;50.712;7.124;2023-05-07T22:54:50;14.35;;;8.15;;
46701;SDS011;33449;50.712;7.124;2023-05-07T22:57:17;10.80;;;7.47;;
46701;SDS011;33449;50.712;7.124;2023-05-07T22:59:45;14.18;;;9.75;;
46701;SDS011;33449;50.712;7.124;2023-05-07T23:02:12;18.58;;;9.85;;
46701;SDS011;33449;50.712;7.124;2023-05-07T23:04:39;16.80;;;8.48;;
46701;SDS011;33449;50.712;7.124;2023-05-07T23:07:06;19.58;;;11.18;;
46701;SDS011;33449;50.712;7.124;2023-05-07T23:09:33;18.23;;;11.10;;
46701;SDS011;33449;50.712;7.124;2023-05-07T23:12:00;13.73;;;9.40;;
46701;SDS011;33449;50.712;7.124;2023-05-07T23:14:28;19.75;;;10.30;;
46701;SDS011;33449;50.712;7.124;2023-05-07T23:16:55;15.48;;;7.90;;
46701;SDS011;33449;50.712;7.124;2023-05-07T23:19:22;10.45;;;7.18;;
46701;SDS011;33449;50.712;7.124;2023-05-07T23:21:49;15.55;;;9.52;;
46701;SDS011;33449;50.712;7.124;2023-05-07T23:24:17;14.15;;;8.57;;
46701;SDS011;33449;50.712;7.124;2023-05-07T23:26:44;15.05;;;10.18;;
46701;SDS011;33449;50.712;7.124;2023-05-07T23:29:11;16.23;;;9.52;;
46701;SDS011;33449;50.712;7.124;2023-05-07T23:31:38;20.23;;;10.23;;
46701;SDS011;33449;50.712;7.124;2023-05-07T23:34:05;18.73;;;10.85;;
46701;SDS011;33449;50.712;7.124;2023-05-07T23:36:32;20.13;;;11.40;;
46701;SDS011;33449;50.712;7.124;2023-05-07T23:38:59;18.85;;;11.27;;
46701;SDS011;33449;50.712;7.124;2023-05-07T23:41:27;23.13;;;11.50;;
46701;SDS011;33449;50.712;7.124;2023-05-07T23:43:54;15.98;;;11.20;;
46701;SDS011;33449;50.712;7.124;2023-05-07T23:46:21;19.00;;;12.50;;
46701;SDS011;33449;50.712;7.124;2023-05-07T23:48:49;20.63;;;13.10;;
46701;SDS011;33449;50.712;7.124;2023-05-07T23:51:16;20.23;;;12.98;;
46701;SDS011;33449;50.712;7.124;2023-05-07T23:56:19;21.52;;;13.48;;
46701;SDS011;33449;50.712;7.124;2023-05-07T23:58:46;22.15;;;14.77;;
